PWSweather.com
Personal Weather Stations
Station Observations
IMAZOWIE6
WarszawaPL

WarszawaPL

Lat: 52.27957, Lon: 21.05489

Elevation: 100

Station Type: WS1080

http://stacjapogody.waw.pl/

High Low Average
Temperature 23.2°F-4.9°C 21.0°F-6.1°C 22.1°F-5.5°C
Dew Point -170.5°F-112.5°C -170.7°F-112.6°C -170.6°F-112.6°C
Winds 2.8 mph 4.5 kmh Calm Calm 1.0 mph N1.6 kmh N
Wind Gusts 8.2 mph13.2 kmh -- 3.0 mph4.8 kmh
Humidity - - -
Pressure 30.12 in1020.0 mb 29.62 in1003.0 mb -
Precipitation 0.00 in0.0 mm - -
Hour Temp Dew Point Humidity Winds Wind Gusts Pressure Precip Precip Rate Daily Precip Total
12:01 AM 22.1°F-5.5°C -170.6°F-112.6°C - Calm Calm 2.0 mph3.2 kmh 30.12 in1020.0 mb 0.00 in0.0 mm 0.00 in0.0 mm 0.00 in0.0 mm
12:16 AM 22.3°F-5.4°C -170.6°F-112.6°C - Calm Calm 2.0 mph3.2 kmh 30.11 in1019.6 mb 0.00 in0.0 mm 0.00 in0.0 mm 0.00 in0.0 mm
12:31 AM 22.1°F-5.5°C -170.6°F-112.6°C - Calm Calm 1.4 mph2.3 kmh 30.11 in1019.6 mb 0.00 in0.0 mm 0.00 in0.0 mm 0.00 in0.0 mm
12:46 AM 22.1°F-5.5°C -170.6°F-112.6°C - 0.6 mph N1.0 kmh N 2.0 mph3.2 kmh 30.09 in1019.0 mb 0.00 in0.0 mm 0.00 in0.0 mm 0.00 in0.0 mm
01:01 AM 21.9°F-5.6°C -170.6°F-112.6°C - Calm Calm 0.6 mph1.0 kmh 30.09 in1019.0 mb 0.00 in0.0 mm 0.00 in0.0 mm 0.00 in0.0 mm
01:16 AM 21.9°F-5.6°C -170.6°F-112.6°C - Calm Calm 0.6 mph1.0 kmh 30.09 in1019.0 mb 0.00 in0.0 mm 0.00 in0.0 mm 0.00 in0.0 mm
01:31 AM 21.9°F-5.6°C -170.6°F-112.6°C - Calm Calm 0.6 mph1.0 kmh 30.09 in1019.0 mb 0.00 in0.0 mm 0.00 in0.0 mm 0.00 in0.0 mm
01:46 AM 21.6°F-5.8°C -170.6°F-112.6°C - 0.6 mph N1.0 kmh N 3.4 mph5.5 kmh 30.08 in1018.6 mb 0.00 in0.0 mm 0.00 in0.0 mm 0.00 in0.0 mm
02:01 AM 21.6°F-5.8°C -170.6°F-112.6°C - 1.4 mph N2.3 kmh N 4.8 mph7.7 kmh 30.07 in1018.3 mb 0.00 in0.0 mm 0.00 in0.0 mm 0.00 in0.0 mm
02:16 AM 21.6°F-5.8°C -170.6°F-112.6°C - Calm Calm -- 30.07 in1018.3 mb 0.00 in0.0 mm 0.00 in0.0 mm 0.00 in0.0 mm
02:30 AM 21.6°F-5.8°C -170.6°F-112.6°C - Calm Calm -- 30.07 in1018.3 mb 0.00 in0.0 mm 0.00 in0.0 mm 0.00 in0.0 mm
02:46 AM 21.6°F-5.8°C -170.6°F-112.6°C - Calm Calm 2.0 mph3.2 kmh 30.07 in1018.3 mb 0.00 in0.0 mm 0.00 in0.0 mm 0.00 in0.0 mm
03:01 AM 21.6°F-5.8°C -170.6°F-112.6°C - Calm Calm -- 30.06 in1017.9 mb 0.00 in0.0 mm 0.00 in0.0 mm 0.00 in0.0 mm
03:16 AM 21.7°F-5.7°C -170.6°F-112.6°C - Calm Calm -- 30.07 in1018.3 mb 0.00 in0.0 mm 0.00 in0.0 mm 0.00 in0.0 mm
03:31 AM 21.7°F-5.7°C -170.6°F-112.6°C - Calm Calm 2.0 mph3.2 kmh 30.06 in1017.9 mb 0.00 in0.0 mm 0.00 in0.0 mm 0.00 in0.0 mm
03:46 AM 21.7°F-5.7°C -170.6°F-112.6°C - 1.4 mph N2.3 kmh N 6.8 mph10.9 kmh 30.06 in1017.9 mb 0.00 in0.0 mm 0.00 in0.0 mm 0.00 in0.0 mm
04:01 AM 21.9°F-5.6°C -170.6°F-112.6°C - 1.4 mph N2.3 kmh N 6.2 mph10.0 kmh 30.06 in1017.9 mb 0.00 in0.0 mm 0.00 in0.0 mm 0.00 in0.0 mm
04:16 AM 21.9°F-5.6°C -170.6°F-112.6°C - 1.4 mph N2.3 kmh N 6.2 mph10.0 kmh 30.06 in1017.9 mb 0.00 in0.0 mm 0.00 in0.0 mm 0.00 in0.0 mm
04:31 AM 21.9°F-5.6°C -170.6°F-112.6°C - 1.4 mph N2.3 kmh N 6.2 mph10.0 kmh 30.06 in1017.9 mb 0.00 in0.0 mm 0.00 in0.0 mm 0.00 in0.0 mm
04:46 AM 21.9°F-5.6°C -170.6°F-112.6°C - Calm Calm 2.0 mph3.2 kmh 30.05 in1017.6 mb 0.00 in0.0 mm 0.00 in0.0 mm 0.00 in0.0 mm
05:01 AM 21.9°F-5.6°C -170.6°F-112.6°C - 1.4 mph N2.3 kmh N 6.2 mph10.0 kmh 30.05 in1017.6 mb 0.00 in0.0 mm 0.00 in0.0 mm 0.00 in0.0 mm
05:16 AM 22.1°F-5.5°C -170.6°F-112.6°C - Calm Calm 0.6 mph1.0 kmh 30.04 in1017.3 mb 0.00 in0.0 mm 0.00 in0.0 mm 0.00 in0.0 mm
05:31 AM 22.1°F-5.5°C -170.6°F-112.6°C - Calm Calm 2.0 mph3.2 kmh 30.04 in1017.3 mb 0.00 in0.0 mm 0.00 in0.0 mm 0.00 in0.0 mm
05:46 AM 21.9°F-5.6°C -170.6°F-112.6°C - Calm Calm -- 30.04 in1017.3 mb 0.00 in0.0 mm 0.00 in0.0 mm 0.00 in0.0 mm
06:01 AM 21.9°F-5.6°C -170.6°F-112.6°C - 0.6 mph N1.0 kmh N 5.4 mph8.7 kmh 30.03 in1016.9 mb 0.00 in0.0 mm 0.00 in0.0 mm 0.00 in0.0 mm
06:16 AM 21.9°F-5.6°C -170.6°F-112.6°C - 0.6 mph N1.0 kmh N 4.0 mph6.4 kmh 30.03 in1016.9 mb 0.00 in0.0 mm 0.00 in0.0 mm 0.00 in0.0 mm
06:31 AM 21.7°F-5.7°C -170.6°F-112.6°C - 1.4 mph N2.3 kmh N 4.0 mph6.4 kmh 30.03 in1016.9 mb 0.00 in0.0 mm 0.00 in0.0 mm 0.00 in0.0 mm
06:46 AM 21.7°F-5.7°C -170.6°F-112.6°C - Calm Calm -- 30.03 in1016.9 mb 0.00 in0.0 mm 0.00 in0.0 mm 0.00 in0.0 mm
07:01 AM 21.9°F-5.6°C -170.6°F-112.6°C - Calm Calm 3.4 mph5.5 kmh 30.02 in1016.6 mb 0.00 in0.0 mm 0.00 in0.0 mm 0.00 in0.0 mm
07:16 AM 21.9°F-5.6°C -170.6°F-112.6°C - Calm Calm 3.4 mph5.5 kmh 30.02 in1016.6 mb 0.00 in0.0 mm 0.00 in0.0 mm 0.00 in0.0 mm
07:31 AM 21.7°F-5.7°C -170.6°F-112.6°C - Calm Calm 5.4 mph8.7 kmh 30.01 in1016.3 mb 0.00 in0.0 mm 0.00 in0.0 mm 0.00 in0.0 mm
07:46 AM 21.7°F-5.7°C -170.6°F-112.6°C - Calm Calm 5.4 mph8.7 kmh 30.01 in1016.3 mb 0.00 in0.0 mm 0.00 in0.0 mm 0.00 in0.0 mm
08:01 AM 21.7°F-5.7°C -170.6°F-112.6°C - Calm Calm -- 30.02 in1016.6 mb 0.00 in0.0 mm 0.00 in0.0 mm 0.00 in0.0 mm
08:16 AM 21.9°F-5.6°C -170.6°F-112.6°C - Calm Calm 2.8 mph4.5 kmh 30.01 in1016.3 mb 0.00 in0.0 mm 0.00 in0.0 mm 0.00 in0.0 mm
08:31 AM 21.9°F-5.6°C -170.6°F-112.6°C - Calm Calm 2.0 mph3.2 kmh 30.01 in1016.3 mb 0.00 in0.0 mm 0.00 in0.0 mm 0.00 in0.0 mm
08:46 AM 21.9°F-5.6°C -170.6°F-112.6°C - 1.4 mph N2.3 kmh N 4.0 mph6.4 kmh 30.01 in1016.3 mb 0.00 in0.0 mm 0.00 in0.0 mm 0.00 in0.0 mm
09:01 AM 21.7°F-5.7°C -170.6°F-112.6°C - 2.0 mph N3.2 kmh N 5.4 mph8.7 kmh 30.01 in1016.3 mb 0.00 in0.0 mm 0.00 in0.0 mm 0.00 in0.0 mm
09:16 AM 21.9°F-5.6°C -170.6°F-112.6°C - 0.6 mph N1.0 kmh N 4.8 mph7.7 kmh 30.01 in1016.3 mb 0.00 in0.0 mm 0.00 in0.0 mm 0.00 in0.0 mm
09:31 AM 21.9°F-5.6°C -170.6°F-112.6°C - 0.6 mph N1.0 kmh N 4.8 mph7.7 kmh 30.01 in1016.3 mb 0.00 in0.0 mm 0.00 in0.0 mm 0.00 in0.0 mm
09:46 AM 22.5°F-5.3°C -170.6°F-112.6°C - 0.6 mph N1.0 kmh N 4.0 mph6.4 kmh 30.00 in1015.9 mb 0.00 in0.0 mm 0.00 in0.0 mm 0.00 in0.0 mm
10:01 AM 22.5°F-5.3°C -170.6°F-112.6°C - 0.6 mph N1.0 kmh N 4.0 mph6.4 kmh 30.00 in1015.9 mb 0.00 in0.0 mm 0.00 in0.0 mm 0.00 in0.0 mm
10:16 AM 22.1°F-5.5°C -170.6°F-112.6°C - Calm Calm -- 29.99 in1015.6 mb 0.00 in0.0 mm 0.00 in0.0 mm 0.00 in0.0 mm
10:31 AM 21.9°F-5.6°C -170.6°F-112.6°C - Calm Calm 1.4 mph2.3 kmh 29.99 in1015.6 mb 0.00 in0.0 mm 0.00 in0.0 mm 0.00 in0.0 mm
10:46 AM 21.9°F-5.6°C -170.6°F-112.6°C - Calm Calm 2.0 mph3.2 kmh 29.98 in1015.2 mb 0.00 in0.0 mm 0.00 in0.0 mm 0.00 in0.0 mm
11:01 AM 22.1°F-5.5°C -170.6°F-112.6°C - Calm Calm 2.0 mph3.2 kmh 29.98 in1015.2 mb 0.00 in0.0 mm 0.00 in0.0 mm 0.00 in0.0 mm
11:16 AM 22.5°F-5.3°C -170.6°F-112.6°C - Calm Calm 2.8 mph4.5 kmh 29.98 in1015.2 mb 0.00 in0.0 mm 0.00 in0.0 mm 0.00 in0.0 mm
11:31 AM 22.3°F-5.4°C -170.6°F-112.6°C - Calm Calm 2.0 mph3.2 kmh 29.97 in1014.9 mb 0.00 in0.0 mm 0.00 in0.0 mm 0.00 in0.0 mm
11:56 AM 22.5°F-5.3°C -170.6°F-112.6°C - 0.6 mph N1.0 kmh N 4.0 mph6.4 kmh 29.95 in1014.2 mb 0.00 in0.0 mm 0.00 in0.0 mm 0.00 in0.0 mm
12:01 PM 22.5°F-5.3°C -170.6°F-112.6°C - Calm Calm 2.0 mph3.2 kmh 29.95 in1014.2 mb 0.00 in0.0 mm 0.00 in0.0 mm 0.00 in0.0 mm
12:16 PM 22.6°F-5.2°C -170.5°F-112.5°C - Calm Calm 1.4 mph2.3 kmh 29.94 in1013.9 mb 0.00 in0.0 mm 0.00 in0.0 mm 0.00 in0.0 mm
12:31 PM 23.0°F-5.0°C -170.5°F-112.5°C - 1.4 mph N2.3 kmh N 7.4 mph11.9 kmh 29.94 in1013.9 mb 0.00 in0.0 mm 0.00 in0.0 mm 0.00 in0.0 mm
12:46 PM 23.0°F-5.0°C -170.5°F-112.5°C - Calm Calm -- 29.93 in1013.5 mb 0.00 in0.0 mm 0.00 in0.0 mm 0.00 in0.0 mm
01:01 PM 23.2°F-4.9°C -170.5°F-112.5°C - 1.4 mph N2.3 kmh N 4.8 mph7.7 kmh 29.92 in1013.2 mb 0.00 in0.0 mm 0.00 in0.0 mm 0.00 in0.0 mm
01:16 PM 23.0°F-5.0°C -170.5°F-112.5°C - 0.6 mph N1.0 kmh N 6.8 mph10.9 kmh 29.91 in1012.9 mb 0.00 in0.0 mm 0.00 in0.0 mm 0.00 in0.0 mm
01:31 PM 22.8°F-5.1°C -170.5°F-112.5°C - Calm Calm -- 29.90 in1012.5 mb 0.00 in0.0 mm 0.00 in0.0 mm 0.00 in0.0 mm
01:46 PM 23.0°F-5.0°C -170.5°F-112.5°C - 0.6 mph N1.0 kmh N 5.4 mph8.7 kmh 29.90 in1012.5 mb 0.00 in0.0 mm 0.00 in0.0 mm 0.00 in0.0 mm
02:01 PM 23.2°F-4.9°C -170.5°F-112.5°C - Calm Calm 1.4 mph2.3 kmh 29.89 in1012.2 mb 0.00 in0.0 mm 0.00 in0.0 mm 0.00 in0.0 mm
02:16 PM 23.0°F-5.0°C -170.5°F-112.5°C - Calm Calm 0.6 mph1.0 kmh 29.88 in1011.9 mb 0.00 in0.0 mm 0.00 in0.0 mm 0.00 in0.0 mm
02:31 PM 23.0°F-5.0°C -170.5°F-112.5°C - 0.6 mph N1.0 kmh N 4.0 mph6.4 kmh 29.87 in1011.5 mb 0.00 in0.0 mm 0.00 in0.0 mm 0.00 in0.0 mm
02:46 PM 22.6°F-5.2°C -170.5°F-112.5°C - 0.6 mph N1.0 kmh N 4.0 mph6.4 kmh 29.87 in1011.5 mb 0.00 in0.0 mm 0.00 in0.0 mm 0.00 in0.0 mm
03:01 PM 22.5°F-5.3°C -170.6°F-112.6°C - 0.6 mph N1.0 kmh N 2.8 mph4.5 kmh 29.87 in1011.5 mb 0.00 in0.0 mm 0.00 in0.0 mm 0.00 in0.0 mm
03:16 PM 22.6°F-5.2°C -170.5°F-112.5°C - Calm Calm 0.6 mph1.0 kmh 29.86 in1011.2 mb 0.00 in0.0 mm 0.00 in0.0 mm 0.00 in0.0 mm
03:31 PM 22.8°F-5.1°C -170.5°F-112.5°C - Calm Calm 3.4 mph5.5 kmh 29.86 in1011.2 mb 0.00 in0.0 mm 0.00 in0.0 mm 0.00 in0.0 mm
03:46 PM 23.0°F-5.0°C -170.5°F-112.5°C - Calm Calm 2.8 mph4.5 kmh 29.85 in1010.8 mb 0.00 in0.0 mm 0.00 in0.0 mm 0.00 in0.0 mm
04:01 PM 22.8°F-5.1°C -170.5°F-112.5°C - Calm Calm 2.8 mph4.5 kmh 29.84 in1010.5 mb 0.00 in0.0 mm 0.00 in0.0 mm 0.00 in0.0 mm
04:16 PM 22.8°F-5.1°C -170.5°F-112.5°C - 1.4 mph N2.3 kmh N 4.0 mph6.4 kmh 29.84 in1010.5 mb 0.00 in0.0 mm 0.00 in0.0 mm 0.00 in0.0 mm
04:31 PM 22.6°F-5.2°C -170.5°F-112.5°C - 0.6 mph N1.0 kmh N 4.0 mph6.4 kmh 29.83 in1010.2 mb 0.00 in0.0 mm 0.00 in0.0 mm 0.00 in0.0 mm
04:46 PM 22.8°F-5.1°C -170.5°F-112.5°C - 1.4 mph N2.3 kmh N 3.4 mph5.5 kmh 29.83 in1010.2 mb 0.00 in0.0 mm 0.00 in0.0 mm 0.00 in0.0 mm
05:01 PM 23.0°F-5.0°C -170.5°F-112.5°C - 0.6 mph N1.0 kmh N 4.0 mph6.4 kmh 29.82 in1009.8 mb 0.00 in0.0 mm 0.00 in0.0 mm 0.00 in0.0 mm
05:16 PM 23.0°F-5.0°C -170.5°F-112.5°C - 0.6 mph N1.0 kmh N 2.8 mph4.5 kmh 29.82 in1009.8 mb 0.00 in0.0 mm 0.00 in0.0 mm 0.00 in0.0 mm
05:31 PM 22.8°F-5.1°C -170.5°F-112.5°C - 2.0 mph N3.2 kmh N 3.4 mph5.5 kmh 29.80 in1009.1 mb 0.00 in0.0 mm 0.00 in0.0 mm 0.00 in0.0 mm
05:46 PM 22.5°F-5.3°C -170.6°F-112.6°C - 1.4 mph N2.3 kmh N 5.4 mph8.7 kmh 29.79 in1008.8 mb 0.00 in0.0 mm 0.00 in0.0 mm 0.00 in0.0 mm
06:00 PM 22.5°F-5.3°C -170.6°F-112.6°C - 1.4 mph N2.3 kmh N 5.4 mph8.7 kmh 29.79 in1008.8 mb 0.00 in0.0 mm 0.00 in0.0 mm 0.00 in0.0 mm
06:16 PM 22.1°F-5.5°C -170.6°F-112.6°C - 0.6 mph N1.0 kmh N 4.0 mph6.4 kmh 29.77 in1008.1 mb 0.00 in0.0 mm 0.00 in0.0 mm 0.00 in0.0 mm
06:31 PM 22.1°F-5.5°C -170.6°F-112.6°C - 1.4 mph N2.3 kmh N 3.4 mph5.5 kmh 29.77 in1008.1 mb 0.00 in0.0 mm 0.00 in0.0 mm 0.00 in0.0 mm
06:46 PM 22.1°F-5.5°C -170.6°F-112.6°C - 0.6 mph N1.0 kmh N 2.8 mph4.5 kmh 29.76 in1007.8 mb 0.00 in0.0 mm 0.00 in0.0 mm 0.00 in0.0 mm
07:01 PM 21.9°F-5.6°C -170.6°F-112.6°C - 1.4 mph N2.3 kmh N 4.0 mph6.4 kmh 29.75 in1007.5 mb 0.00 in0.0 mm 0.00 in0.0 mm 0.00 in0.0 mm
07:16 PM 21.9°F-5.6°C -170.6°F-112.6°C - 1.4 mph N2.3 kmh N 4.0 mph6.4 kmh 29.75 in1007.5 mb 0.00 in0.0 mm 0.00 in0.0 mm 0.00 in0.0 mm
07:31 PM 21.9°F-5.6°C -170.6°F-112.6°C - 1.4 mph N2.3 kmh N 4.0 mph6.4 kmh 29.75 in1007.5 mb 0.00 in0.0 mm 0.00 in0.0 mm 0.00 in0.0 mm
07:46 PM 21.9°F-5.6°C -170.6°F-112.6°C - 1.4 mph N2.3 kmh N 4.0 mph6.4 kmh 29.75 in1007.5 mb 0.00 in0.0 mm 0.00 in0.0 mm 0.00 in0.0 mm
08:00 PM 21.9°F-5.6°C -170.6°F-112.6°C - 1.4 mph N2.3 kmh N 4.0 mph6.4 kmh 29.75 in1007.5 mb 0.00 in0.0 mm 0.00 in0.0 mm 0.00 in0.0 mm
08:16 PM 21.9°F-5.6°C -170.6°F-112.6°C - 1.4 mph N2.3 kmh N 4.0 mph6.4 kmh 29.75 in1007.5 mb 0.00 in0.0 mm 0.00 in0.0 mm 0.00 in0.0 mm
08:31 PM 21.6°F-5.8°C -170.6°F-112.6°C - 1.4 mph N2.3 kmh N 6.8 mph10.9 kmh 29.72 in1006.4 mb 0.00 in0.0 mm 0.00 in0.0 mm 0.00 in0.0 mm
08:46 PM 21.7°F-5.7°C -170.6°F-112.6°C - 0.6 mph N1.0 kmh N 3.4 mph5.5 kmh 29.71 in1006.1 mb 0.00 in0.0 mm 0.00 in0.0 mm 0.00 in0.0 mm
09:01 PM 21.7°F-5.7°C -170.6°F-112.6°C - 2.8 mph N4.5 kmh N 8.2 mph13.2 kmh 29.70 in1005.8 mb 0.00 in0.0 mm 0.00 in0.0 mm 0.00 in0.0 mm
09:16 PM 22.3°F-5.4°C -170.6°F-112.6°C - 1.4 mph N2.3 kmh N 6.2 mph10.0 kmh 29.69 in1005.4 mb 0.00 in0.0 mm 0.00 in0.0 mm 0.00 in0.0 mm
09:30 PM 22.3°F-5.4°C -170.6°F-112.6°C - 1.4 mph N2.3 kmh N 6.2 mph10.0 kmh 29.69 in1005.4 mb 0.00 in0.0 mm 0.00 in0.0 mm 0.00 in0.0 mm
09:46 PM 22.3°F-5.4°C -170.6°F-112.6°C - 1.4 mph N2.3 kmh N 4.8 mph7.7 kmh 29.68 in1005.1 mb 0.00 in0.0 mm 0.00 in0.0 mm 0.00 in0.0 mm
10:01 PM 22.1°F-5.5°C -170.6°F-112.6°C - 1.4 mph N2.3 kmh N 6.2 mph10.0 kmh 29.67 in1004.7 mb 0.00 in0.0 mm 0.00 in0.0 mm 0.00 in0.0 mm
10:16 PM 21.7°F-5.7°C -170.6°F-112.6°C - 2.0 mph N3.2 kmh N 7.4 mph11.9 kmh 29.66 in1004.4 mb 0.00 in0.0 mm 0.00 in0.0 mm 0.00 in0.0 mm
10:31 PM 21.6°F-5.8°C -170.6°F-112.6°C - 0.6 mph N1.0 kmh N 4.0 mph6.4 kmh 29.66 in1004.4 mb 0.00 in0.0 mm 0.00 in0.0 mm 0.00 in0.0 mm
10:46 PM 21.6°F-5.8°C -170.6°F-112.6°C - 2.0 mph N3.2 kmh N 4.8 mph7.7 kmh 29.65 in1004.1 mb 0.00 in0.0 mm 0.00 in0.0 mm 0.00 in0.0 mm
11:01 PM 21.4°F-5.9°C -170.7°F-112.6°C - 1.4 mph N2.3 kmh N 5.4 mph8.7 kmh 29.64 in1003.7 mb 0.00 in0.0 mm 0.00 in0.0 mm 0.00 in0.0 mm
11:16 PM 21.2°F-6.0°C -170.7°F-112.6°C - 0.6 mph N1.0 kmh N 4.8 mph7.7 kmh 29.63 in1003.4 mb 0.00 in0.0 mm 0.00 in0.0 mm 0.00 in0.0 mm
11:31 PM 21.0°F-6.1°C -170.7°F-112.6°C - Calm Calm 2.8 mph4.5 kmh 29.62 in1003.0 mb 0.00 in0.0 mm 0.00 in0.0 mm 0.00 in0.0 mm
11:45 PM 21.0°F-6.1°C -170.7°F-112.6°C - Calm Calm 2.8 mph4.5 kmh 29.62 in1003.0 mb 0.00 in0.0 mm 0.00 in0.0 mm 0.00 in0.0 mm